sensor_id;sensor_type;location;lat;lon;timestamp;P1;durP1;ratioP1;P2;durP2;ratioP2
11988;SDS011;6054;50.966;7.094;2023-03-25T00:01:45;1.35;;;0.70;;
11988;SDS011;6054;50.966;7.094;2023-03-25T00:04:13;1.23;;;0.60;;
11988;SDS011;6054;50.966;7.094;2023-03-25T00:06:41;1.23;;;0.57;;
11988;SDS011;6054;50.966;7.094;2023-03-25T00:09:08;3.55;;;0.77;;
11988;SDS011;6054;50.966;7.094;2023-03-25T00:11:35;2.45;;;0.77;;
11988;SDS011;6054;50.966;7.094;2023-03-25T00:14:01;0.73;;;0.60;;
11988;SDS011;6054;50.966;7.094;2023-03-25T00:16:28;4.93;;;1.48;;
11988;SDS011;6054;50.966;7.094;2023-03-25T00:18:56;4.07;;;0.90;;
11988;SDS011;6054;50.966;7.094;2023-03-25T00:21:25;3.38;;;0.80;;
11988;SDS011;6054;50.966;7.094;2023-03-25T00:23:52;2.10;;;0.95;;
11988;SDS011;6054;50.966;7.094;2023-03-25T00:26:18;4.75;;;0.57;;
11988;SDS011;6054;50.966;7.094;2023-03-25T00:28:45;2.40;;;0.93;;
11988;SDS011;6054;50.966;7.094;2023-03-25T00:31:12;4.10;;;1.30;;
11988;SDS011;6054;50.966;7.094;2023-03-25T00:33:39;2.30;;;0.80;;
11988;SDS011;6054;50.966;7.094;2023-03-25T00:36:07;3.60;;;1.05;;
11988;SDS011;6054;50.966;7.094;2023-03-25T00:38:38;2.95;;;0.90;;
11988;SDS011;6054;50.966;7.094;2023-03-25T00:41:10;3.85;;;1.08;;
11988;SDS011;6054;50.966;7.094;2023-03-25T00:43:41;5.85;;;0.80;;
11988;SDS011;6054;50.966;7.094;2023-03-25T00:46:09;3.92;;;0.80;;
11988;SDS011;6054;50.966;7.094;2023-03-25T00:48:36;3.50;;;1.13;;
11988;SDS011;6054;50.966;7.094;2023-03-25T00:51:03;2.47;;;1.00;;
11988;SDS011;6054;50.966;7.094;2023-03-25T00:53:33;1.65;;;0.75;;
11988;SDS011;6054;50.966;7.094;2023-03-25T00:56:03;3.97;;;0.98;;
11988;SDS011;6054;50.966;7.094;2023-03-25T00:58:30;2.30;;;0.90;;
11988;SDS011;6054;50.966;7.094;2023-03-25T01:00:57;3.10;;;0.80;;
11988;SDS011;6054;50.966;7.094;2023-03-25T01:03:24;1.73;;;0.60;;
11988;SDS011;6054;50.966;7.094;2023-03-25T01:05:53;3.72;;;0.90;;
11988;SDS011;6054;50.966;7.094;2023-03-25T01:08:22;2.08;;;0.80;;
11988;SDS011;6054;50.966;7.094;2023-03-25T01:10:50;2.00;;;0.65;;
11988;SDS011;6054;50.966;7.094;2023-03-25T01:13:20;2.85;;;1.08;;
11988;SDS011;6054;50.966;7.094;2023-03-25T01:15:48;2.33;;;0.80;;
11988;SDS011;6054;50.966;7.094;2023-03-25T01:18:14;2.88;;;0.77;;
11988;SDS011;6054;50.966;7.094;2023-03-25T01:20:42;1.70;;;0.73;;
11988;SDS011;6054;50.966;7.094;2023-03-25T01:23:09;3.28;;;1.45;;
11988;SDS011;6054;50.966;7.094;2023-03-25T01:25:36;4.35;;;1.38;;
11988;SDS011;6054;50.966;7.094;2023-03-25T01:28:03;1.45;;;0.90;;
11988;SDS011;6054;50.966;7.094;2023-03-25T01:30:31;4.63;;;1.00;;
11988;SDS011;6054;50.966;7.094;2023-03-25T01:32:58;2.55;;;0.82;;
11988;SDS011;6054;50.966;7.094;2023-03-25T01:35:25;3.55;;;0.95;;
11988;SDS011;6054;50.966;7.094;2023-03-25T01:37:52;1.92;;;0.98;;
11988;SDS011;6054;50.966;7.094;2023-03-25T01:40:20;4.05;;;1.10;;
11988;SDS011;6054;50.966;7.094;2023-03-25T01:42:48;2.13;;;0.82;;
11988;SDS011;6054;50.966;7.094;2023-03-25T01:45:20;3.05;;;1.13;;
11988;SDS011;6054;50.966;7.094;2023-03-25T01:47:52;3.22;;;0.75;;
11988;SDS011;6054;50.966;7.094;2023-03-25T01:50:25;3.70;;;0.90;;
11988;SDS011;6054;50.966;7.094;2023-03-25T01:52:53;2.40;;;0.77;;
11988;SDS011;6054;50.966;7.094;2023-03-25T01:55:23;1.55;;;0.77;;
11988;SDS011;6054;50.966;7.094;2023-03-25T01:57:51;4.00;;;0.90;;
11988;SDS011;6054;50.966;7.094;2023-03-25T02:00:21;3.30;;;0.70;;
11988;SDS011;6054;50.966;7.094;2023-03-25T02:02:52;1.58;;;0.63;;
11988;SDS011;6054;50.966;7.094;2023-03-25T02:05:23;3.33;;;0.85;;
11988;SDS011;6054;50.966;7.094;2023-03-25T02:07:55;4.97;;;0.88;;
11988;SDS011;6054;50.966;7.094;2023-03-25T02:10:22;2.53;;;1.20;;
11988;SDS011;6054;50.966;7.094;2023-03-25T02:12:49;2.05;;;0.80;;
11988;SDS011;6054;50.966;7.094;2023-03-25T02:15:16;3.53;;;1.02;;
11988;SDS011;6054;50.966;7.094;2023-03-25T02:17:53;2.67;;;0.73;;
11988;SDS011;6054;50.966;7.094;2023-03-25T02:20:48;3.70;;;1.00;;
11988;SDS011;6054;50.966;7.094;2023-03-25T02:23:52;2.67;;;1.00;;
11988;SDS011;6054;50.966;7.094;2023-03-25T02:26:44;3.25;;;1.00;;
11988;SDS011;6054;50.966;7.094;2023-03-25T02:29:43;5.90;;;0.80;;
11988;SDS011;6054;50.966;7.094;2023-03-25T02:32:35;3.60;;;0.75;;
11988;SDS011;6054;50.966;7.094;2023-03-25T02:35:27;2.60;;;0.77;;
11988;SDS011;6054;50.966;7.094;2023-03-25T02:40:56;3.75;;;1.00;;
11988;SDS011;6054;50.966;7.094;2023-03-25T02:43:27;2.88;;;1.08;;
11988;SDS011;6054;50.966;7.094;2023-03-25T02:45:58;3.05;;;1.05;;
11988;SDS011;6054;50.966;7.094;2023-03-25T02:48:29;1.42;;;0.63;;
11988;SDS011;6054;50.966;7.094;2023-03-25T02:51:02;2.10;;;0.80;;
11988;SDS011;6054;50.966;7.094;2023-03-25T02:53:35;2.78;;;0.70;;
11988;SDS011;6054;50.966;7.094;2023-03-25T02:56:05;2.70;;;0.80;;
11988;SDS011;6054;50.966;7.094;2023-03-25T02:58:35;2.15;;;0.88;;
11988;SDS011;6054;50.966;7.094;2023-03-25T03:01:04;2.25;;;0.75;;
11988;SDS011;6054;50.966;7.094;2023-03-25T03:03:34;2.60;;;0.77;;
11988;SDS011;6054;50.966;7.094;2023-03-25T03:06:01;3.83;;;1.13;;
11988;SDS011;6054;50.966;7.094;2023-03-25T03:08:34;1.75;;;1.05;;
11988;SDS011;6054;50.966;7.094;2023-03-25T03:11:16;3.20;;;1.10;;
11988;SDS011;6054;50.966;7.094;2023-03-25T03:16:37;4.88;;;0.98;;
11988;SDS011;6054;50.966;7.094;2023-03-25T03:19:15;2.05;;;0.85;;
11988;SDS011;6054;50.966;7.094;2023-03-25T03:21:53;4.00;;;1.00;;
11988;SDS011;6054;50.966;7.094;2023-03-25T03:24:27;2.13;;;0.80;;
11988;SDS011;6054;50.966;7.094;2023-03-25T03:26:58;3.30;;;1.10;;
11988;SDS011;6054;50.966;7.094;2023-03-25T03:29:33;4.53;;;1.00;;
11988;SDS011;6054;50.966;7.094;2023-03-25T03:32:03;6.97;;;1.17;;
11988;SDS011;6054;50.966;7.094;2023-03-25T03:34:36;4.35;;;1.20;;
11988;SDS011;6054;50.966;7.094;2023-03-25T03:37:08;5.55;;;1.48;;
11988;SDS011;6054;50.966;7.094;2023-03-25T03:39:40;2.47;;;1.05;;
11988;SDS011;6054;50.966;7.094;2023-03-25T03:42:09;4.07;;;1.33;;
11988;SDS011;6054;50.966;7.094;2023-03-25T03:44:43;5.22;;;1.33;;
11988;SDS011;6054;50.966;7.094;2023-03-25T03:47:15;2.33;;;1.02;;
11988;SDS011;6054;50.966;7.094;2023-03-25T03:49:47;5.10;;;1.00;;
11988;SDS011;6054;50.966;7.094;2023-03-25T03:52:19;2.90;;;1.13;;
11988;SDS011;6054;50.966;7.094;2023-03-25T03:54:51;3.53;;;1.08;;
11988;SDS011;6054;50.966;7.094;2023-03-25T03:57:23;2.22;;;1.02;;
11988;SDS011;6054;50.966;7.094;2023-03-25T03:59:55;2.67;;;0.90;;
11988;SDS011;6054;50.966;7.094;2023-03-25T04:02:32;2.40;;;0.80;;
11988;SDS011;6054;50.966;7.094;2023-03-25T04:05:04;3.03;;;1.20;;
11988;SDS011;6054;50.966;7.094;2023-03-25T04:07:33;4.72;;;1.10;;
11988;SDS011;6054;50.966;7.094;2023-03-25T04:10:06;5.18;;;1.10;;
11988;SDS011;6054;50.966;7.094;2023-03-25T04:12:39;4.00;;;0.98;;
11988;SDS011;6054;50.966;7.094;2023-03-25T04:15:09;4.20;;;1.10;;
11988;SDS011;6054;50.966;7.094;2023-03-25T04:17:36;2.63;;;0.80;;
11988;SDS011;6054;50.966;7.094;2023-03-25T04:20:03;5.95;;;1.13;;
11988;SDS011;6054;50.966;7.094;2023-03-25T04:22:33;3.13;;;0.80;;
11988;SDS011;6054;50.966;7.094;2023-03-25T04:25:02;2.33;;;0.88;;
11988;SDS011;6054;50.966;7.094;2023-03-25T04:27:31;1.55;;;0.70;;
11988;SDS011;6054;50.966;7.094;2023-03-25T04:30:01;4.13;;;0.80;;
11988;SDS011;6054;50.966;7.094;2023-03-25T04:32:29;1.50;;;0.70;;
11988;SDS011;6054;50.966;7.094;2023-03-25T04:34:56;4.97;;;1.20;;
11988;SDS011;6054;50.966;7.094;2023-03-25T04:37:22;4.07;;;0.98;;
11988;SDS011;6054;50.966;7.094;2023-03-25T04:39:49;3.03;;;0.80;;
11988;SDS011;6054;50.966;7.094;2023-03-25T04:42:18;5.15;;;0.75;;
11988;SDS011;6054;50.966;7.094;2023-03-25T04:44:46;2.45;;;0.80;;
11988;SDS011;6054;50.966;7.094;2023-03-25T04:47:12;2.50;;;0.85;;
11988;SDS011;6054;50.966;7.094;2023-03-25T04:49:42;2.70;;;0.70;;
11988;SDS011;6054;50.966;7.094;2023-03-25T04:52:09;3.78;;;0.93;;
11988;SDS011;6054;50.966;7.094;2023-03-25T04:54:36;2.83;;;0.75;;
11988;SDS011;6054;50.966;7.094;2023-03-25T04:57:04;3.00;;;0.88;;
11988;SDS011;6054;50.966;7.094;2023-03-25T04:59:32;5.25;;;1.50;;
11988;SDS011;6054;50.966;7.094;2023-03-25T05:02:01;2.53;;;0.90;;
11988;SDS011;6054;50.966;7.094;2023-03-25T05:04:29;1.70;;;0.98;;
11988;SDS011;6054;50.966;7.094;2023-03-25T05:06:56;4.63;;;0.98;;
11988;SDS011;6054;50.966;7.094;2023-03-25T05:09:23;2.83;;;0.90;;
11988;SDS011;6054;50.966;7.094;2023-03-25T05:11:51;5.35;;;1.23;;
11988;SDS011;6054;50.966;7.094;2023-03-25T05:14:19;3.10;;;0.68;;
11988;SDS011;6054;50.966;7.094;2023-03-25T05:16:46;2.30;;;0.77;;
11988;SDS011;6054;50.966;7.094;2023-03-25T05:19:15;4.45;;;1.15;;
11988;SDS011;6054;50.966;7.094;2023-03-25T05:21:43;4.18;;;1.10;;
11988;SDS011;6054;50.966;7.094;2023-03-25T05:24:11;3.13;;;0.80;;
11988;SDS011;6054;50.966;7.094;2023-03-25T05:26:39;3.03;;;0.93;;
11988;SDS011;6054;50.966;7.094;2023-03-25T05:29:07;2.08;;;0.70;;
11988;SDS011;6054;50.966;7.094;2023-03-25T05:31:37;1.73;;;0.90;;
11988;SDS011;6054;50.966;7.094;2023-03-25T05:34:05;5.72;;;1.27;;
11988;SDS011;6054;50.966;7.094;2023-03-25T05:36:34;3.05;;;0.95;;
11988;SDS011;6054;50.966;7.094;2023-03-25T05:39:01;2.50;;;0.90;;
11988;SDS011;6054;50.966;7.094;2023-03-25T05:41:29;3.40;;;1.00;;
11988;SDS011;6054;50.966;7.094;2023-03-25T05:43:57;3.00;;;0.93;;
11988;SDS011;6054;50.966;7.094;2023-03-25T05:46:26;2.15;;;0.80;;
11988;SDS011;6054;50.966;7.094;2023-03-25T05:48:54;3.15;;;1.50;;
11988;SDS011;6054;50.966;7.094;2023-03-25T05:51:22;3.45;;;1.20;;
11988;SDS011;6054;50.966;7.094;2023-03-25T05:53:51;3.88;;;1.13;;
11988;SDS011;6054;50.966;7.094;2023-03-25T05:56:18;2.67;;;0.85;;
11988;SDS011;6054;50.966;7.094;2023-03-25T05:58:47;2.78;;;1.13;;
11988;SDS011;6054;50.966;7.094;2023-03-25T06:01:15;2.20;;;0.90;;
11988;SDS011;6054;50.966;7.094;2023-03-25T06:03:44;3.70;;;1.00;;
11988;SDS011;6054;50.966;7.094;2023-03-25T06:06:11;4.45;;;1.30;;
11988;SDS011;6054;50.966;7.094;2023-03-25T06:08:38;4.38;;;1.10;;
11988;SDS011;6054;50.966;7.094;2023-03-25T06:11:07;4.43;;;1.00;;
11988;SDS011;6054;50.966;7.094;2023-03-25T06:13:38;3.95;;;1.02;;
11988;SDS011;6054;50.966;7.094;2023-03-25T06:16:05;5.10;;;1.60;;
11988;SDS011;6054;50.966;7.094;2023-03-25T06:18:33;3.13;;;0.90;;
11988;SDS011;6054;50.966;7.094;2023-03-25T06:21:00;4.95;;;1.00;;
11988;SDS011;6054;50.966;7.094;2023-03-25T06:23:27;4.25;;;0.95;;
11988;SDS011;6054;50.966;7.094;2023-03-25T06:25:54;3.60;;;1.27;;
11988;SDS011;6054;50.966;7.094;2023-03-25T06:28:24;6.30;;;1.70;;
11988;SDS011;6054;50.966;7.094;2023-03-25T06:30:50;3.85;;;1.10;;
11988;SDS011;6054;50.966;7.094;2023-03-25T06:33:17;5.93;;;1.48;;
11988;SDS011;6054;50.966;7.094;2023-03-25T06:35:45;5.60;;;1.42;;
11988;SDS011;6054;50.966;7.094;2023-03-25T06:38:17;2.05;;;0.70;;
11988;SDS011;6054;50.966;7.094;2023-03-25T06:40:44;3.22;;;0.90;;
11988;SDS011;6054;50.966;7.094;2023-03-25T06:43:11;3.17;;;1.20;;
11988;SDS011;6054;50.966;7.094;2023-03-25T06:45:40;3.58;;;1.02;;
11988;SDS011;6054;50.966;7.094;2023-03-25T06:48:07;3.20;;;0.80;;
11988;SDS011;6054;50.966;7.094;2023-03-25T06:50:33;5.20;;;1.40;;
11988;SDS011;6054;50.966;7.094;2023-03-25T06:53:00;3.88;;;1.20;;
11988;SDS011;6054;50.966;7.094;2023-03-25T06:55:27;4.90;;;1.42;;
11988;SDS011;6054;50.966;7.094;2023-03-25T06:57:54;4.18;;;1.17;;
11988;SDS011;6054;50.966;7.094;2023-03-25T07:00:21;7.25;;;1.60;;
11988;SDS011;6054;50.966;7.094;2023-03-25T07:02:52;4.55;;;1.23;;
11988;SDS011;6054;50.966;7.094;2023-03-25T07:05:19;2.80;;;1.10;;
11988;SDS011;6054;50.966;7.094;2023-03-25T07:07:46;5.20;;;1.30;;
11988;SDS011;6054;50.966;7.094;2023-03-25T07:10:13;4.53;;;1.27;;
11988;SDS011;6054;50.966;7.094;2023-03-25T07:12:40;2.63;;;1.10;;
11988;SDS011;6054;50.966;7.094;2023-03-25T07:15:07;5.22;;;0.93;;
11988;SDS011;6054;50.966;7.094;2023-03-25T07:17:34;3.38;;;1.35;;
11988;SDS011;6054;50.966;7.094;2023-03-25T07:20:03;4.70;;;1.30;;
11988;SDS011;6054;50.966;7.094;2023-03-25T07:22:31;3.67;;;0.98;;
11988;SDS011;6054;50.966;7.094;2023-03-25T07:24:58;3.97;;;1.25;;
11988;SDS011;6054;50.966;7.094;2023-03-25T07:27:25;4.55;;;1.20;;
11988;SDS011;6054;50.966;7.094;2023-03-25T07:29:52;3.05;;;1.08;;
11988;SDS011;6054;50.966;7.094;2023-03-25T07:32:19;3.42;;;0.80;;
11988;SDS011;6054;50.966;7.094;2023-03-25T07:34:46;1.52;;;0.63;;
11988;SDS011;6054;50.966;7.094;2023-03-25T07:37:14;2.83;;;0.80;;
11988;SDS011;6054;50.966;7.094;2023-03-25T07:39:41;3.45;;;0.95;;
11988;SDS011;6054;50.966;7.094;2023-03-25T07:42:07;3.45;;;0.90;;
11988;SDS011;6054;50.966;7.094;2023-03-25T07:44:34;5.00;;;1.15;;
11988;SDS011;6054;50.966;7.094;2023-03-25T07:47:01;1.85;;;0.70;;
11988;SDS011;6054;50.966;7.094;2023-03-25T07:49:28;3.95;;;1.23;;
11988;SDS011;6054;50.966;7.094;2023-03-25T07:51:55;3.38;;;0.80;;
11988;SDS011;6054;50.966;7.094;2023-03-25T07:54:23;1.95;;;0.77;;
11988;SDS011;6054;50.966;7.094;2023-03-25T07:56:50;2.53;;;0.90;;
11988;SDS011;6054;50.966;7.094;2023-03-25T07:59:18;3.85;;;1.08;;
11988;SDS011;6054;50.966;7.094;2023-03-25T08:01:45;4.00;;;1.10;;
11988;SDS011;6054;50.966;7.094;2023-03-25T08:04:12;3.95;;;1.45;;
11988;SDS011;6054;50.966;7.094;2023-03-25T08:06:39;1.67;;;0.73;;
11988;SDS011;6054;50.966;7.094;2023-03-25T08:09:05;3.03;;;1.17;;
11988;SDS011;6054;50.966;7.094;2023-03-25T08:11:34;2.28;;;1.02;;
11988;SDS011;6054;50.966;7.094;2023-03-25T08:14:00;2.85;;;0.90;;
11988;SDS011;6054;50.966;7.094;2023-03-25T08:16:27;3.63;;;0.90;;
11988;SDS011;6054;50.966;7.094;2023-03-25T08:18:54;3.40;;;0.98;;
11988;SDS011;6054;50.966;7.094;2023-03-25T08:21:21;3.10;;;0.95;;
11988;SDS011;6054;50.966;7.094;2023-03-25T08:23:49;3.50;;;0.98;;
11988;SDS011;6054;50.966;7.094;2023-03-25T08:26:18;2.90;;;1.13;;
11988;SDS011;6054;50.966;7.094;2023-03-25T08:28:46;4.70;;;1.42;;
11988;SDS011;6054;50.966;7.094;2023-03-25T08:31:13;2.88;;;1.23;;
11988;SDS011;6054;50.966;7.094;2023-03-25T08:33:40;3.20;;;1.00;;
11988;SDS011;6054;50.966;7.094;2023-03-25T08:36:07;4.07;;;1.17;;
11988;SDS011;6054;50.966;7.094;2023-03-25T08:38:37;5.88;;;1.60;;
11988;SDS011;6054;50.966;7.094;2023-03-25T08:41:05;3.20;;;0.80;;
11988;SDS011;6054;50.966;7.094;2023-03-25T08:43:33;5.28;;;1.77;;
11988;SDS011;6054;50.966;7.094;2023-03-25T08:46:01;5.50;;;1.30;;
11988;SDS011;6054;50.966;7.094;2023-03-25T08:48:27;1.88;;;0.73;;
11988;SDS011;6054;50.966;7.094;2023-03-25T08:50:54;2.03;;;1.10;;
11988;SDS011;6054;50.966;7.094;2023-03-25T08:53:21;4.47;;;1.25;;
11988;SDS011;6054;50.966;7.094;2023-03-25T08:55:49;4.53;;;1.48;;
11988;SDS011;6054;50.966;7.094;2023-03-25T08:58:17;6.47;;;1.67;;
11988;SDS011;6054;50.966;7.094;2023-03-25T09:00:44;3.40;;;1.40;;
11988;SDS011;6054;50.966;7.094;2023-03-25T09:03:13;6.40;;;1.33;;
11988;SDS011;6054;50.966;7.094;2023-03-25T09:05:40;4.72;;;1.40;;
11988;SDS011;6054;50.966;7.094;2023-03-25T09:08:06;4.68;;;1.50;;
11988;SDS011;6054;50.966;7.094;2023-03-25T09:10:33;4.65;;;0.93;;
11988;SDS011;6054;50.966;7.094;2023-03-25T09:13:00;5.20;;;1.42;;
11988;SDS011;6054;50.966;7.094;2023-03-25T09:15:27;4.05;;;1.25;;
11988;SDS011;6054;50.966;7.094;2023-03-25T09:17:53;8.88;;;1.83;;
11988;SDS011;6054;50.966;7.094;2023-03-25T09:20:22;4.32;;;1.35;;
11988;SDS011;6054;50.966;7.094;2023-03-25T09:22:49;2.92;;;1.10;;
11988;SDS011;6054;50.966;7.094;2023-03-25T09:25:15;6.75;;;1.40;;
11988;SDS011;6054;50.966;7.094;2023-03-25T09:27:42;6.88;;;1.52;;
11988;SDS011;6054;50.966;7.094;2023-03-25T09:30:09;9.70;;;1.80;;
11988;SDS011;6054;50.966;7.094;2023-03-25T09:32:36;2.75;;;1.08;;
11988;SDS011;6054;50.966;7.094;2023-03-25T09:35:03;4.25;;;1.25;;
11988;SDS011;6054;50.966;7.094;2023-03-25T09:37:32;4.50;;;1.48;;
11988;SDS011;6054;50.966;7.094;2023-03-25T09:39:59;6.47;;;1.63;;
11988;SDS011;6054;50.966;7.094;2023-03-25T09:45:24;7.10;;;2.20;;
11988;SDS011;6054;50.966;7.094;2023-03-25T09:47:58;7.13;;;1.65;;
11988;SDS011;6054;50.966;7.094;2023-03-25T09:50:28;9.82;;;1.98;;
11988;SDS011;6054;50.966;7.094;2023-03-25T09:53:00;5.15;;;1.48;;
11988;SDS011;6054;50.966;7.094;2023-03-25T09:55:33;5.53;;;1.20;;
11988;SDS011;6054;50.966;7.094;2023-03-25T09:58:04;7.88;;;1.70;;
11988;SDS011;6054;50.966;7.094;2023-03-25T10:00:49;5.93;;;1.40;;
11988;SDS011;6054;50.966;7.094;2023-03-25T10:03:23;5.25;;;1.13;;
11988;SDS011;6054;50.966;7.094;2023-03-25T10:05:57;9.77;;;1.83;;
11988;SDS011;6054;50.966;7.094;2023-03-25T10:08:40;5.00;;;1.25;;
11988;SDS011;6054;50.966;7.094;2023-03-25T10:11:18;5.50;;;1.48;;
11988;SDS011;6054;50.966;7.094;2023-03-25T10:13:53;6.65;;;1.60;;
11988;SDS011;6054;50.966;7.094;2023-03-25T10:16:28;6.20;;;1.92;;
11988;SDS011;6054;50.966;7.094;2023-03-25T10:19:06;9.73;;;2.05;;
11988;SDS011;6054;50.966;7.094;2023-03-25T10:21:49;4.57;;;1.42;;
11988;SDS011;6054;50.966;7.094;2023-03-25T10:24:24;5.13;;;1.60;;
11988;SDS011;6054;50.966;7.094;2023-03-25T10:26:55;7.95;;;2.00;;
11988;SDS011;6054;50.966;7.094;2023-03-25T10:29:29;7.10;;;1.58;;
11988;SDS011;6054;50.966;7.094;2023-03-25T10:32:00;5.97;;;1.70;;
11988;SDS011;6054;50.966;7.094;2023-03-25T10:34:32;5.43;;;1.25;;
11988;SDS011;6054;50.966;7.094;2023-03-25T10:37:02;9.23;;;1.90;;
11988;SDS011;6054;50.966;7.094;2023-03-25T10:39:40;6.13;;;1.48;;
11988;SDS011;6054;50.966;7.094;2023-03-25T10:42:15;3.75;;;1.02;;
11988;SDS011;6054;50.966;7.094;2023-03-25T10:44:49;5.60;;;1.42;;
11988;SDS011;6054;50.966;7.094;2023-03-25T10:47:17;7.70;;;1.60;;
11988;SDS011;6054;50.966;7.094;2023-03-25T10:49:46;6.53;;;1.60;;
11988;SDS011;6054;50.966;7.094;2023-03-25T10:52:15;6.43;;;1.33;;
11988;SDS011;6054;50.966;7.094;2023-03-25T10:54:44;6.32;;;1.50;;
11988;SDS011;6054;50.966;7.094;2023-03-25T10:57:16;10.05;;;2.05;;
11988;SDS011;6054;50.966;7.094;2023-03-25T10:59:50;4.15;;;1.38;;
11988;SDS011;6054;50.966;7.094;2023-03-25T11:02:23;7.70;;;1.55;;
11988;SDS011;6054;50.966;7.094;2023-03-25T11:04:53;8.35;;;1.83;;
11988;SDS011;6054;50.966;7.094;2023-03-25T11:07:24;8.85;;;2.13;;
11988;SDS011;6054;50.966;7.094;2023-03-25T11:10:07;6.50;;;1.77;;
11988;SDS011;6054;50.966;7.094;2023-03-25T11:12:36;7.43;;;1.50;;
11988;SDS011;6054;50.966;7.094;2023-03-25T11:15:04;7.85;;;1.83;;
11988;SDS011;6054;50.966;7.094;2023-03-25T11:17:32;6.43;;;1.50;;
11988;SDS011;6054;50.966;7.094;2023-03-25T11:20:00;9.15;;;1.75;;
11988;SDS011;6054;50.966;7.094;2023-03-25T11:22:33;5.90;;;1.40;;
11988;SDS011;6054;50.966;7.094;2023-03-25T11:25:03;8.75;;;1.27;;
11988;SDS011;6054;50.966;7.094;2023-03-25T11:27:36;5.70;;;1.38;;
11988;SDS011;6054;50.966;7.094;2023-03-25T11:30:13;7.78;;;1.58;;
11988;SDS011;6054;50.966;7.094;2023-03-25T11:32:42;7.18;;;1.40;;
11988;SDS011;6054;50.966;7.094;2023-03-25T11:35:13;4.13;;;1.48;;
11988;SDS011;6054;50.966;7.094;2023-03-25T11:37:43;4.22;;;1.42;;
11988;SDS011;6054;50.966;7.094;2023-03-25T11:40:13;5.65;;;1.25;;
11988;SDS011;6054;50.966;7.094;2023-03-25T11:42:43;7.28;;;1.52;;
11988;SDS011;6054;50.966;7.094;2023-03-25T11:45:18;5.85;;;1.70;;
11988;SDS011;6054;50.966;7.094;2023-03-25T11:47:46;6.90;;;1.50;;
11988;SDS011;6054;50.966;7.094;2023-03-25T11:50:20;3.75;;;1.30;;
11988;SDS011;6054;50.966;7.094;2023-03-25T11:52:50;6.22;;;1.60;;
11988;SDS011;6054;50.966;7.094;2023-03-25T11:55:21;4.40;;;1.50;;
11988;SDS011;6054;50.966;7.094;2023-03-25T11:57:52;9.45;;;1.83;;
11988;SDS011;6054;50.966;7.094;2023-03-25T12:00:34;5.78;;;1.88;;
11988;SDS011;6054;50.966;7.094;2023-03-25T12:03:04;7.15;;;1.20;;
11988;SDS011;6054;50.966;7.094;2023-03-25T12:05:32;8.05;;;1.50;;
11988;SDS011;6054;50.966;7.094;2023-03-25T12:08:02;5.38;;;1.70;;
11988;SDS011;6054;50.966;7.094;2023-03-25T12:10:36;5.72;;;1.48;;
11988;SDS011;6054;50.966;7.094;2023-03-25T12:13:15;5.63;;;1.27;;
11988;SDS011;6054;50.966;7.094;2023-03-25T12:16:05;8.02;;;1.63;;
11988;SDS011;6054;50.966;7.094;2023-03-25T12:18:48;3.90;;;1.10;;
11988;SDS011;6054;50.966;7.094;2023-03-25T12:21:49;7.18;;;1.83;;
11988;SDS011;6054;50.966;7.094;2023-03-25T12:24:27;5.60;;;1.20;;
11988;SDS011;6054;50.966;7.094;2023-03-25T12:27:10;6.45;;;1.60;;
11988;SDS011;6054;50.966;7.094;2023-03-25T12:29:46;3.33;;;1.02;;
11988;SDS011;6054;50.966;7.094;2023-03-25T12:32:24;6.43;;;1.80;;
11988;SDS011;6054;50.966;7.094;2023-03-25T12:35:03;2.95;;;1.20;;
11988;SDS011;6054;50.966;7.094;2023-03-25T12:37:43;11.18;;;1.70;;
11988;SDS011;6054;50.966;7.094;2023-03-25T12:40:30;3.70;;;1.35;;
11988;SDS011;6054;50.966;7.094;2023-03-25T12:43:09;2.50;;;1.40;;
11988;SDS011;6054;50.966;7.094;2023-03-25T12:45:44;4.22;;;1.33;;
11988;SDS011;6054;50.966;7.094;2023-03-25T12:48:33;5.30;;;1.42;;
11988;SDS011;6054;50.966;7.094;2023-03-25T12:51:12;6.45;;;1.67;;
11988;SDS011;6054;50.966;7.094;2023-03-25T12:53:48;6.28;;;1.52;;
11988;SDS011;6054;50.966;7.094;2023-03-25T12:56:28;8.98;;;1.50;;
11988;SDS011;6054;50.966;7.094;2023-03-25T13:02:14;7.60;;;1.88;;
11988;SDS011;6054;50.966;7.094;2023-03-25T13:05:04;3.53;;;1.08;;
11988;SDS011;6054;50.966;7.094;2023-03-25T13:07:42;5.07;;;1.50;;
11988;SDS011;6054;50.966;7.094;2023-03-25T13:10:13;5.40;;;1.42;;
11988;SDS011;6054;50.966;7.094;2023-03-25T13:12:43;5.07;;;1.25;;
11988;SDS011;6054;50.966;7.094;2023-03-25T13:15:15;4.45;;;1.38;;
11988;SDS011;6054;50.966;7.094;2023-03-25T13:17:47;3.15;;;1.10;;
11988;SDS011;6054;50.966;7.094;2023-03-25T13:20:20;4.80;;;1.40;;
11988;SDS011;6054;50.966;7.094;2023-03-25T13:22:50;4.55;;;1.48;;
11988;SDS011;6054;50.966;7.094;2023-03-25T13:25:26;4.40;;;1.70;;
11988;SDS011;6054;50.966;7.094;2023-03-25T13:30:28;4.07;;;1.30;;
11988;SDS011;6054;50.966;7.094;2023-03-25T13:33:02;9.32;;;1.85;;
11988;SDS011;6054;50.966;7.094;2023-03-25T13:35:33;8.25;;;1.80;;
11988;SDS011;6054;50.966;7.094;2023-03-25T13:38:05;2.55;;;1.10;;
11988;SDS011;6054;50.966;7.094;2023-03-25T13:40:39;6.57;;;1.50;;
11988;SDS011;6054;50.966;7.094;2023-03-25T13:43:14;5.40;;;1.58;;
11988;SDS011;6054;50.966;7.094;2023-03-25T13:45:48;7.38;;;1.85;;
11988;SDS011;6054;50.966;7.094;2023-03-25T13:48:21;11.63;;;1.85;;
11988;SDS011;6054;50.966;7.094;2023-03-25T13:50:52;6.85;;;1.63;;
11988;SDS011;6054;50.966;7.094;2023-03-25T13:53:21;7.75;;;1.58;;
11988;SDS011;6054;50.966;7.094;2023-03-25T13:55:55;8.02;;;1.50;;
11988;SDS011;6054;50.966;7.094;2023-03-25T13:58:30;7.82;;;1.77;;
11988;SDS011;6054;50.966;7.094;2023-03-25T14:01:12;17.17;;;2.42;;
11988;SDS011;6054;50.966;7.094;2023-03-25T14:07:02;7.15;;;1.50;;
11988;SDS011;6054;50.966;7.094;2023-03-25T14:13:07;5.68;;;1.70;;
11988;SDS011;6054;50.966;7.094;2023-03-25T14:15:39;6.20;;;1.63;;
11988;SDS011;6054;50.966;7.094;2023-03-25T14:18:12;5.50;;;1.25;;
11988;SDS011;6054;50.966;7.094;2023-03-25T14:20:43;7.18;;;1.15;;
11988;SDS011;6054;50.966;7.094;2023-03-25T14:23:11;6.10;;;1.25;;
11988;SDS011;6054;50.966;7.094;2023-03-25T14:25:42;8.95;;;1.60;;
11988;SDS011;6054;50.966;7.094;2023-03-25T14:28:14;7.70;;;1.30;;
11988;SDS011;6054;50.966;7.094;2023-03-25T14:30:44;5.07;;;1.30;;
11988;SDS011;6054;50.966;7.094;2023-03-25T14:39:52;4.93;;;1.50;;
11988;SDS011;6054;50.966;7.094;2023-03-25T14:42:23;7.00;;;1.88;;
11988;SDS011;6054;50.966;7.094;2023-03-25T14:44:53;5.25;;;1.25;;
11988;SDS011;6054;50.966;7.094;2023-03-25T14:47:57;4.35;;;1.30;;
11988;SDS011;6054;50.966;7.094;2023-03-25T14:50:31;6.53;;;1.52;;
11988;SDS011;6054;50.966;7.094;2023-03-25T14:53:00;4.10;;;1.92;;
11988;SDS011;6054;50.966;7.094;2023-03-25T14:55:30;4.60;;;1.60;;
11988;SDS011;6054;50.966;7.094;2023-03-25T14:58:00;7.32;;;2.08;;
11988;SDS011;6054;50.966;7.094;2023-03-25T15:00:31;4.68;;;1.30;;
11988;SDS011;6054;50.966;7.094;2023-03-25T15:03:02;6.50;;;1.63;;
11988;SDS011;6054;50.966;7.094;2023-03-25T15:05:34;3.40;;;1.50;;
11988;SDS011;6054;50.966;7.094;2023-03-25T15:08:09;6.18;;;1.77;;
11988;SDS011;6054;50.966;7.094;2023-03-25T15:10:39;5.18;;;1.77;;
11988;SDS011;6054;50.966;7.094;2023-03-25T15:13:08;4.28;;;1.33;;
11988;SDS011;6054;50.966;7.094;2023-03-25T15:15:52;9.85;;;2.17;;
11988;SDS011;6054;50.966;7.094;2023-03-25T15:21:25;9.57;;;1.90;;
11988;SDS011;6054;50.966;7.094;2023-03-25T15:23:58;6.40;;;1.60;;
11988;SDS011;6054;50.966;7.094;2023-03-25T15:26:31;8.75;;;1.63;;
11988;SDS011;6054;50.966;7.094;2023-03-25T15:31:54;5.45;;;1.60;;
11988;SDS011;6054;50.966;7.094;2023-03-25T15:34:47;5.30;;;1.52;;
11988;SDS011;6054;50.966;7.094;2023-03-25T15:37:42;6.40;;;1.30;;
11988;SDS011;6054;50.966;7.094;2023-03-25T15:40:27;6.55;;;1.50;;
11988;SDS011;6054;50.966;7.094;2023-03-25T15:43:16;7.82;;;1.50;;
11988;SDS011;6054;50.966;7.094;2023-03-25T15:49:11;9.27;;;1.80;;
11988;SDS011;6054;50.966;7.094;2023-03-25T15:51:57;4.97;;;1.85;;
11988;SDS011;6054;50.966;7.094;2023-03-25T15:54:35;8.13;;;1.98;;
11988;SDS011;6054;50.966;7.094;2023-03-25T15:57:12;7.72;;;1.60;;
11988;SDS011;6054;50.966;7.094;2023-03-25T15:59:43;10.70;;;1.77;;
11988;SDS011;6054;50.966;7.094;2023-03-25T16:02:16;6.88;;;1.95;;